Time;durP1;ratioP1;P1;durP2;ratioP2;P2;SDS_P1;SDS_P2;PMS_P1;PMS_P2;Temp;Humidity;BMP_temperature;BMP_pressure;BME280_temperature;BME280_humidity;BME280_pressure;Samples;Min_cycle;Max_cycle;Signal;HPM_P1;HPM_P2
2022/02/22 00:00:14;;;;;;;13.73;8.65;;;;;;;10.23;94.04;99444.78;5032974;28;20102;-75
2022/02/22 00:02:41;;;;;;;12.40;9.43;;;;;;;10.00;94.32;99406.47;5032650;28;20037;-78
2022/02/22 00:05:11;;;;;;;11.90;8.02;;;;;;;10.11;94.67;99435.94;5022353;28;20041;-78
2022/02/22 00:07:37;;;;;;;12.70;8.82;;;;;;;9.80;94.80;99380.25;5009396;28;20030;-78
2022/02/22 00:10:04;;;;;;;12.68;9.10;;;;;;;10.12;94.93;99435.09;4994866;28;20044;-78
2022/02/22 00:12:29;;;;;;;14.05;9.10;;;;;;;10.01;94.84;99413.38;5012992;28;20100;-78
2022/02/22 00:14:55;;;;;;;11.68;8.50;;;;;;;9.95;94.64;99395.19;4995325;28;20084;-80
2022/02/22 00:17:20;;;;;;;12.88;8.88;;;;;;;9.86;94.70;99383.81;5012886;28;20045;-82
2022/02/22 00:19:46;;;;;;;10.40;8.65;;;;;;;10.16;94.46;99424.00;5012615;28;20026;-78
2022/02/22 00:22:11;;;;;;;13.05;9.30;;;;;;;10.02;94.69;99408.25;5012937;28;20026;-77
2022/02/22 00:24:37;;;;;;;13.70;9.07;;;;;;;10.02;95.25;99412.53;5012906;28;20042;-77
2022/02/22 00:27:03;;;;;;;14.73;9.73;;;;;;;9.96;95.29;99396.94;4995379;28;20026;-78
2022/02/22 00:29:29;;;;;;;11.50;8.85;;;;;;;9.78;95.35;99363.88;5012641;28;20038;-77
2022/02/22 00:31:54;;;;;;;13.98;9.05;;;;;;;9.98;96.20;99403.88;5012703;28;20148;-78
2022/02/22 00:34:20;;;;;;;12.60;9.13;;;;;;;9.99;96.85;99404.72;5012797;28;20092;-79
2022/02/22 00:36:45;;;;;;;17.58;10.73;;;;;;;9.92;97.30;99387.38;5012502;28;20041;-79
2022/02/22 00:39:11;;;;;;;16.85;9.43;;;;;;;9.97;97.49;99398.66;5012379;28;20033;-80
2022/02/22 00:41:37;;;;;;;13.77;9.68;;;;;;;10.01;97.11;99400.47;5011478;28;20480;-78
2022/02/22 00:44:03;;;;;;;13.15;8.82;;;;;;;9.81;97.11;99358.81;4994774;28;20022;-78
2022/02/22 00:46:29;;;;;;;12.23;9.43;;;;;;;9.97;96.66;99388.34;5012180;28;20476;-78
2022/02/22 00:48:55;;;;;;;11.48;9.52;;;;;;;9.98;96.87;99395.25;5012209;28;20109;-74
2022/02/22 00:51:20;;;;;;;12.18;9.82;;;;;;;9.96;96.48;99391.78;5012798;28;20048;-75
2022/02/22 00:53:46;;;;;;;13.65;9.70;;;;;;;9.96;96.52;99391.78;5027089;28;20512;-78
2022/02/22 00:56:11;;;;;;;13.05;9.60;;;;;;;9.90;96.84;99387.34;5032021;28;20033;-77
2022/02/22 00:58:37;;;;;;;14.77;9.80;;;;;;;9.77;96.93;99377.59;5031829;28;20033;-75
2022/02/22 01:01:03;;;;;;;13.98;9.75;;;;;;;9.41;97.25;99312.38;5031723;28;20029;-77
2022/02/22 01:03:28;;;;;;;15.40;10.00;;;;;;;9.81;97.18;99387.16;5031481;28;20033;-74
2022/02/22 01:05:54;;;;;;;15.55;9.98;;;;;;;9.83;97.07;99383.78;5031900;28;20038;-79
2022/02/22 01:08:19;;;;;;;13.25;10.65;;;;;;;9.71;97.10;99363.72;5031707;28;20472;-75
2022/02/22 01:10:44;;;;;;;13.57;10.10;;;;;;;9.83;96.85;99370.00;5031654;28;20025;-77
2022/02/22 01:13:10;;;;;;;11.77;9.88;;;;;;;9.64;96.13;99318.03;5031664;28;20022;-78
2022/02/22 01:15:36;;;;;;;12.85;10.35;;;;;;;9.96;95.96;99372.00;5031643;28;20028;-79
2022/02/22 01:18:02;;;;;;;14.35;9.93;;;;;;;10.03;95.84;99362.69;5031562;28;20036;-76
2022/02/22 01:20:27;;;;;;;14.55;11.02;;;;;;;9.99;95.36;99342.84;5031747;28;20146;-80
2022/02/22 01:22:55;;;;;;;12.25;9.55;;;;;;;10.09;94.55;99351.66;5031460;28;20045;-77
2022/02/22 01:25:21;;;;;;;15.30;10.98;;;;;;;10.17;93.90;99355.25;5031785;28;20044;-80
2022/02/22 01:27:46;;;;;;;15.98;12.23;;;;;;;10.16;93.76;99346.63;5031387;28;20451;-74
2022/02/22 01:30:12;;;;;;;15.70;11.70;;;;;;;10.09;93.56;99333.59;5031583;28;20035;-77
2022/02/22 01:32:38;;;;;;;18.85;13.50;;;;;;;10.08;94.21;99340.47;5013514;28;20037;-74
2022/02/22 01:35:05;;;;;;;16.80;12.13;;;;;;;10.20;94.13;99347.56;5031296;28;20099;-79
2022/02/22 01:37:30;;;;;;;17.92;11.13;;;;;;;10.02;93.84;99314.56;5031337;28;20032;-77
2022/02/22 01:39:56;;;;;;;15.23;10.48;;;;;;;10.16;94.10;99338.91;5031264;28;20033;-77
2022/02/22 01:42:21;;;;;;;15.70;10.75;;;;;;;10.10;94.27;99333.63;5030978;28;20128;-77
2022/02/22 01:44:48;;;;;;;17.48;11.25;;;;;;;9.98;94.22;99344.56;5031122;28;20559;-74
2022/02/22 01:47:16;;;;;;;13.85;10.13;;;;;;;9.90;93.03;99335.78;5030944;28;20510;-78
2022/02/22 01:49:43;;;;;;;16.70;11.20;;;;;;;9.87;92.37;99336.59;5031316;28;20037;-77
2022/02/22 01:52:08;;;;;;;14.93;11.65;;;;;;;9.62;92.42;99345.50;5030784;28;20033;-74
2022/02/22 01:54:34;;;;;;;16.83;11.95;;;;;;;9.47;92.34;99335.72;5031084;28;20044;-79
2022/02/22 01:56:59;;;;;;;16.50;11.82;;;;;;;9.45;92.39;99342.53;5030727;28;20044;-79
2022/02/22 01:59:25;;;;;;;17.02;12.15;;;;;;;9.19;91.99;99318.72;5030721;28;20037;-81
2022/02/22 02:01:50;;;;;;;17.17;12.65;;;;;;;9.09;92.09;99322.78;5030702;28;20053;-77
2022/02/22 02:04:16;;;;;;;20.02;14.40;;;;;;;9.10;92.29;99327.09;5030966;28;20476;-80
2022/02/22 02:06:41;;;;;;;16.92;13.10;;;;;;;8.73;92.97;99297.88;5030821;28;20025;-80
2022/02/22 02:09:09;;;;;;;17.63;13.07;;;;;;;9.04;93.22;99347.56;5030986;28;20411;-78
2022/02/22 02:12:01;;;;;;;15.05;11.77;;;;;;;9.07;92.81;99342.47;5030882;28;20455;-77
2022/02/22 02:14:27;;;;;;;21.20;13.23;;;;;;;8.98;93.22;99343.09;4950288;28;20079;-79
2022/02/22 02:16:58;;;;;;;17.42;12.10;;;;;;;8.83;93.77;99330.72;4950251;28;20075;-78
2022/02/22 02:19:24;;;;;;;20.77;12.80;;;;;;;8.61;94.16;99319.03;4950301;28;20554;-82
2022/02/22 02:21:50;;;;;;;17.90;12.32;;;;;;;8.66;94.59;99342.28;4950388;28;20421;-76
2022/02/22 02:24:24;;;;;;;20.38;14.82;;;;;;;8.29;95.23;99295.84;4950357;29;20043;-80
2022/02/22 02:26:51;;;;;;;23.55;15.32;;;;;;;8.45;96.18;99337.41;4950322;29;20046;-82
2022/02/22 02:29:22;;;;;;;21.45;13.95;;;;;;;8.12;96.67;99310.81;4950424;29;20086;-76
2022/02/22 02:31:50;;;;;;;22.20;14.27;;;;;;;8.17;98.08;99342.66;4950255;28;20119;-79
2022/02/22 02:34:19;;;;;;;23.27;14.77;;;;;;;8.07;98.70;99332.94;4934080;29;20107;-78
2022/02/22 02:36:45;;;;;;;21.98;15.40;;;;;;;7.93;99.37;99337.69;4950245;29;20031;-75
2022/02/22 02:39:11;;;;;;;23.33;16.20;;;;;;;7.91;99.78;99342.78;4950272;29;20063;-77
2022/02/22 02:41:38;;;;;;;28.08;17.23;;;;;;;7.76;99.40;99324.31;4950152;29;20540;-76
2022/02/22 02:44:07;;;;;;;22.85;15.80;;;;;;;7.24;99.58;99261.97;4950118;28;20083;-80
2022/02/22 02:46:33;;;;;;;21.35;15.00;;;;;;;7.49;99.86;99329.50;4950127;28;20450;-79
2022/02/22 02:48:59;;;;;;;22.42;16.08;;;;;;;7.15;100.00;99288.25;4950000;29;20035;-77
2022/02/22 02:51:25;;;;;;;24.58;16.00;;;;;;;7.35;100.00;99331.66;4996655;28;20162;-74
2022/02/22 02:53:53;;;;;;;20.02;15.65;;;;;;;7.52;100.00;99340.75;5030630;28;20073;-74
2022/02/22 02:56:25;;;;;;;21.08;15.27;;;;;;;7.55;99.50;99339.97;5011795;28;20045;-77
2022/02/22 02:58:52;;;;;;;23.45;15.02;;;;;;;7.47;99.82;99344.00;5030439;28;20030;-77
2022/02/22 03:01:19;;;;;;;23.35;16.15;;;;;;;7.52;100.00;99338.19;5030372;28;20125;-79
2022/02/22 03:03:45;;;;;;;25.25;14.82;;;;;;;7.34;99.56;99299.97;5030049;28;20471;-77
2022/02/22 03:06:10;;;;;;;27.20;16.27;;;;;;;7.63;98.96;99345.31;5033989;28;20104;-80
2022/02/22 03:08:36;;;;;;;21.38;16.60;;;;;;;7.58;98.85;99340.94;5033781;28;20025;-78
2022/02/22 03:11:01;;;;;;;25.17;15.63;;;;;;;7.65;98.49;99343.69;5034023;28;20075;-78
2022/02/22 03:13:27;;;;;;;22.45;16.00;;;;;;;7.63;97.32;99343.66;5034001;28;20025;-75
2022/02/22 03:15:52;;;;;;;24.90;15.30;;;;;;;7.71;97.19;99343.88;5033738;28;20520;-75
2022/02/22 03:18:18;;;;;;;18.98;14.48;;;;;;;7.69;95.75;99340.38;5033817;28;20519;-79
2022/02/22 03:20:43;;;;;;;22.50;15.77;;;;;;;7.37;96.77;99337.72;5033803;28;20557;-76
2022/02/22 03:23:09;;;;;;;30.35;15.57;;;;;;;6.95;98.26;99287.59;5033613;28;20447;-79
2022/02/22 03:25:34;;;;;;;21.95;15.70;;;;;;;7.16;98.92;99340.47;5034000;28;20037;-76
2022/02/22 03:28:03;;;;;;;22.63;15.48;;;;;;;7.11;99.34;99348.88;5033833;28;20030;-81
2022/02/22 03:30:32;;;;;;;22.15;15.82;;;;;;;6.97;100.00;99343.28;5033491;28;20018;-78
2022/02/22 03:32:58;;;;;;;24.58;15.43;;;;;;;6.73;100.00;99337.31;5033674;28;20029;-81
2022/02/22 03:35:23;;;;;;;24.45;16.15;;;;;;;6.55;100.00;99340.16;5033461;28;20026;-81
2022/02/22 03:37:49;;;;;;;24.38;16.58;;;;;;;6.54;100.00;99352.09;5033402;28;20032;-82
2022/02/22 03:40:14;;;;;;;29.90;17.73;;;;;;;6.40;100.00;99332.78;5033581;28;20032;-81
2022/02/22 03:42:41;;;;;;;26.58;17.17;;;;;;;6.41;100.00;99357.63;5033338;28;20043;-80
2022/02/22 03:45:10;;;;;;;29.60;18.27;;;;;;;6.17;100.00;99332.84;5033521;28;20022;-82
2022/02/22 03:47:37;;;;;;;25.83;16.55;;;;;;;6.32;100.00;99358.16;5012421;28;20034;-81
2022/02/22 03:50:04;;;;;;;26.13;17.48;;;;;;;6.15;100.00;99350.69;5032064;28;20052;-81
2022/02/22 03:52:30;;;;;;;22.65;16.20;;;;;;;6.11;100.00;99346.28;5033108;28;20057;-79
2022/02/22 03:54:56;;;;;;;27.45;17.95;;;;;;;6.15;100.00;99350.69;5013942;28;20133;-81
2022/02/22 03:57:21;;;;;;;28.15;18.73;;;;;;;6.21;100.00;99354.34;5013246;28;20056;-80
2022/02/22 03:59:47;;;;;;;26.13;17.48;;;;;;;6.43;100.00;99373.91;5013359;28;20412;-80
2022/02/22 04:02:12;;;;;;;29.65;18.45;;;;;;;6.24;100.00;99316.00;5016571;28;20061;-78
2022/02/22 04:04:38;;;;;;;29.65;17.23;;;;;;;6.55;100.00;99353.81;5032621;28;20037;-78
2022/02/22 04:07:03;;;;;;;23.73;16.98;;;;;;;6.58;100.00;99366.78;5032614;28;20103;-81
2022/02/22 04:09:29;;;;;;;25.90;17.25;;;;;;;6.72;100.00;99374.09;5033070;28;20476;-81
2022/02/22 04:11:55;;;;;;;23.20;16.02;;;;;;;6.52;100.00;99335.78;4997729;28;20132;-80
2022/02/22 04:14:20;;;;;;;25.50;16.50;;;;;;;6.35;100.00;99322.38;5015122;28;20063;-79
2022/02/22 04:16:46;;;;;;;28.48;16.92;;;;;;;6.69;100.00;99379.97;5032404;28;20447;-80
2022/02/22 04:19:11;;;;;;;29.15;18.10;;;;;;;6.40;100.00;99345.59;5032569;28;20509;-76
2022/02/22 04:21:37;;;;;;;27.05;17.35;;;;;;;6.45;100.00;99377.41;5032621;28;20403;-77
2022/02/22 04:24:02;;;;;;;27.50;17.73;;;;;;;6.41;100.00;99373.00;5032742;28;20038;-82
2022/02/22 04:26:28;;;;;;;26.45;17.48;;;;;;;6.28;100.00;99354.59;5014865;28;20389;-83
2022/02/22 04:28:55;;;;;;;28.88;18.48;;;;;;;6.25;100.00;99354.47;5032704;28;20072;-83
2022/02/22 04:31:21;;;;;;;26.45;18.27;;;;;;;6.44;100.00;99373.09;5029518;28;20032;-79
2022/02/22 04:33:46;;;;;;;57.53;38.15;;;;;;;6.55;100.00;99371.78;5032307;28;20030;-76
2022/02/22 04:36:12;;;;;;;72.43;44.80;;;;;;;6.57;100.00;99365.03;5032199;28;20087;-78
2022/02/22 04:38:38;;;;;;;40.80;27.67;;;;;;;6.67;100.00;99363.66;5032467;28;20472;-76
2022/02/22 04:41:03;;;;;;;40.55;25.05;;;;;;;6.77;100.00;99368.28;5032134;28;20060;-81
2022/02/22 04:43:29;;;;;;;31.00;19.63;;;;;;;6.75;100.00;99349.41;5032355;28;20108;-78
2022/02/22 04:45:54;;;;;;;26.63;18.08;;;;;;;6.87;99.64;99361.75;5014387;28;20051;-82
2022/02/22 04:48:20;;;;;;;26.95;17.75;;;;;;;6.84;98.18;99373.63;5032176;28;20029;-77
2022/02/22 04:50:45;;;;;;;22.17;16.95;;;;;;;6.85;98.62;99365.97;5030693;28;20556;-74
2022/02/22 04:53:11;;;;;;;29.27;21.17;;;;;;;6.82;98.09;99371.00;5026575;28;20053;-75
2022/02/22 04:55:36;;;;;;;34.10;25.75;;;;;;;6.69;98.15;99361.13;5031426;28;20052;-78
2022/02/22 04:58:02;;;;;;;36.38;28.60;;;;;;;6.61;98.16;99374.56;5026952;28;20043;-78
2022/02/22 05:00:28;;;;;;;43.63;31.17;;;;;;;6.47;98.84;99370.66;5028219;28;20025;-81
2022/02/22 05:02:53;;;;;;;36.22;25.75;;;;;;;6.31;99.65;99367.53;5031184;28;20060;-76
2022/02/22 05:05:18;;;;;;;34.53;24.20;;;;;;;6.20;100.00;99383.34;5030374;28;20030;-77
2022/02/22 05:07:44;;;;;;;34.88;22.05;;;;;;;5.96;100.00;99372.19;5031259;28;20029;-74
2022/02/22 05:10:09;;;;;;;31.08;21.67;;;;;;;5.89;100.00;99383.00;5027048;28;20107;-75
2022/02/22 05:12:35;;;;;;;33.15;20.88;;;;;;;5.81;100.00;99384.44;5032037;28;20052;-76
2022/02/22 05:15:01;;;;;;;33.88;20.63;;;;;;;5.85;100.00;99385.41;5030725;28;20080;-78
2022/02/22 05:17:26;;;;;;;30.23;19.77;;;;;;;5.76;100.00;99344.97;5031326;28;20170;-78
2022/02/22 05:19:51;;;;;;;28.27;18.88;;;;;;;5.99;100.00;99380.03;5031496;28;20060;-80
2022/02/22 05:22:17;;;;;;;28.88;21.02;;;;;;;5.94;100.00;99375.50;5029864;28;20029;-79
2022/02/22 05:24:43;;;;;;;24.17;17.13;;;;;;;5.83;100.00;99354.59;5031498;28;20025;-79
2022/02/22 05:27:08;;;;;;;30.88;18.38;;;;;;;6.23;100.00;99399.72;5030889;28;20026;-78
2022/02/22 05:29:34;;;;;;;26.98;18.08;;;;;;;6.35;100.00;99388.16;5029812;28;20052;-81
2022/02/22 05:32:00;;;;;;;33.17;20.83;;;;;;;6.42;100.00;99400.38;5030569;28;20037;-77
2022/02/22 05:34:27;;;;;;;28.52;18.42;;;;;;;6.13;100.00;99383.09;5028796;28;20122;-77
2022/02/22 05:36:59;;;;;;;31.05;19.42;;;;;;;5.80;100.00;99364.75;5030587;28;20079;-81
2022/02/22 05:39:24;;;;;;;28.98;17.77;;;;;;;5.70;100.00;99384.00;5030644;28;20033;-77
2022/02/22 05:41:50;;;;;;;29.95;17.13;;;;;;;5.45;100.00;99406.06;5030841;28;20022;-78
2022/02/22 05:44:15;;;;;;;28.52;17.85;;;;;;;5.61;100.00;99412.69;5030757;28;20022;-77
2022/02/22 05:46:41;;;;;;;36.75;23.13;;;;;;;5.62;100.00;99409.31;5030652;28;20431;-78
2022/02/22 05:49:06;;;;;;;40.80;27.38;;;;;;;5.54;100.00;99407.25;5030417;28;20506;-75
2022/02/22 05:51:32;;;;;;;41.58;27.80;;;;;;;5.72;100.00;99418.25;5030672;28;20029;-76
2022/02/22 05:53:57;;;;;;;44.95;28.80;;;;;;;5.75;100.00;99392.72;5030828;28;20447;-77
2022/02/22 05:56:22;;;;;;;44.03;30.40;;;;;;;6.04;100.00;99407.50;5030362;28;20041;-77
2022/02/22 05:58:48;;;;;;;50.60;29.17;;;;;;;6.17;100.00;99417.41;5030475;28;20033;-77
2022/02/22 06:01:13;;;;;;;36.15;23.20;;;;;;;6.23;100.00;99411.63;5029857;28;20033;-78
2022/02/22 06:03:39;;;;;;;38.40;23.25;;;;;;;6.27;100.00;99421.19;5030095;28;20539;-75
2022/02/22 06:06:04;;;;;;;36.72;23.80;;;;;;;6.30;100.00;99422.16;5030424;28;20144;-77
2022/02/22 06:08:30;;;;;;;31.30;23.90;;;;;;;6.21;100.00;99382.53;5030219;28;20434;-76
2022/02/22 06:10:55;;;;;;;42.08;28.70;;;;;;;6.53;100.00;99408.44;5030226;28;20415;-77
2022/02/22 06:13:21;;;;;;;43.92;27.95;;;;;;;6.71;100.00;99415.94;5030273;28;20497;-74
2022/02/22 06:15:47;;;;;;;33.15;19.90;;;;;;;6.48;100.00;99367.28;5029994;28;20079;-77
2022/02/22 06:18:13;;;;;;;31.13;19.05;;;;;;;6.73;100.00;99386.94;5009462;28;20021;-77
2022/02/22 06:20:39;;;;;;;43.33;23.65;;;;;;;7.07;100.00;99413.75;4992618;28;20083;-74
2022/02/22 06:23:05;;;;;;;27.92;19.25;;;;;;;7.09;100.00;99391.59;5030229;28;20376;-76
2022/02/22 06:25:31;;;;;;;26.38;18.23;;;;;;;7.17;100.00;99391.84;5030433;28;20026;-76
2022/02/22 06:27:57;;;;;;;30.40;18.23;;;;;;;7.31;100.00;99391.44;5030729;28;20029;-80
2022/02/22 06:30:24;;;;;;;24.58;16.77;;;;;;;7.46;100.00;99402.19;5030678;28;20373;-77
2022/02/22 06:32:51;;;;;;;26.40;17.10;;;;;;;7.60;100.00;99400.94;5030573;28;20515;-77
2022/02/22 06:35:18;;;;;;;24.15;17.17;;;;;;;7.71;100.00;99402.97;5030684;28;20043;-76
2022/02/22 06:37:44;;;;;;;34.67;18.65;;;;;;;7.68;100.00;99400.31;5030914;28;20021;-76
2022/02/22 06:40:10;;;;;;;31.88;16.75;;;;;;;7.72;100.00;99404.72;5034602;28;20083;-73
2022/02/22 06:42:37;;;;;;;31.15;17.45;;;;;;;7.77;100.00;99395.44;5026571;28;20033;-77
2022/02/22 06:45:07;;;;;;;38.92;17.55;;;;;;;7.89;100.00;99400.97;5033456;28;20025;-78
2022/02/22 06:47:32;;;;;;;36.20;17.85;;;;;;;7.56;100.00;99336.56;5033611;28;20488;-77
2022/02/22 06:49:58;;;;;;;38.30;19.15;;;;;;;8.01;100.00;99415.00;5033999;28;20029;-77
2022/02/22 06:52:23;;;;;;;37.53;20.13;;;;;;;8.01;100.00;99418.47;5033826;28;20453;-76
2022/02/22 06:54:50;;;;;;;31.38;20.77;;;;;;;8.02;100.00;99403.91;5033971;28;20032;-75
2022/02/22 06:57:18;;;;;;;48.35;21.33;;;;;;;7.79;100.00;99393.81;5033409;28;20041;-79
2022/02/22 06:59:44;;;;;;;81.18;23.23;;;;;;;7.73;100.00;99417.59;5029262;28;20095;-79
2022/02/22 07:02:10;;;;;;;72.78;21.13;;;;;;;7.93;100.00;99425.06;5034403;28;20464;-78
2022/02/22 07:04:35;;;;;;;68.22;20.40;;;;;;;7.90;100.00;99394.13;5034291;28;20040;-73
2022/02/22 07:07:02;;;;;;;57.58;24.88;;;;;;;7.98;100.00;99395.22;5033573;28;20041;-77
2022/02/22 07:09:28;;;;;;;52.72;20.08;;;;;;;8.07;100.00;99418.66;5031040;28;20021;-77
2022/02/22 07:11:53;;;;;;;47.75;19.80;;;;;;;8.22;100.00;99427.63;5033728;28;20163;-76
2022/02/22 07:14:19;;;;;;;35.45;17.77;;;;;;;8.22;100.00;99431.09;5033435;28;20545;-76
2022/02/22 07:16:44;;;;;;;25.02;16.88;;;;;;;8.14;100.00;99416.25;5033876;28;20029;-78
2022/02/22 07:19:10;;;;;;;35.28;16.08;;;;;;;8.37;100.00;99435.81;5034080;28;20029;-78
2022/02/22 07:21:35;;;;;;;35.10;18.15;;;;;;;8.48;100.00;99438.72;5033863;28;20029;-77
2022/02/22 07:24:01;;;;;;;25.77;16.73;;;;;;;8.53;100.00;99437.13;5033968;28;20512;-81
2022/02/22 07:26:26;;;;;;;33.80;18.55;;;;;;;8.60;100.00;99450.16;5034081;28;20415;-78
2022/02/22 07:28:51;;;;;;;35.05;19.23;;;;;;;8.40;100.00;99448.75;5033717;28;20026;-78
2022/02/22 07:31:17;;;;;;;27.83;18.98;;;;;;;8.32;100.00;99442.50;5015633;28;20064;-76
2022/02/22 07:33:43;;;;;;;29.90;20.00;;;;;;;8.43;100.00;99455.69;5033500;28;20068;-78
2022/02/22 07:36:08;;;;;;;28.20;19.45;;;;;;;8.46;100.00;99455.81;5033513;28;20029;-77
2022/02/22 07:38:34;;;;;;;25.95;18.38;;;;;;;8.47;100.00;99449.81;5014983;28;20040;-75
2022/02/22 07:41:00;;;;;;;33.55;19.27;;;;;;;8.58;100.00;99455.28;5032732;28;20128;-78
2022/02/22 07:43:26;;;;;;;36.38;21.35;;;;;;;8.79;100.00;99457.59;5032552;28;20032;-75
2022/02/22 07:45:51;;;;;;;31.27;18.15;;;;;;;8.78;100.00;99417.22;5032173;28;20487;-78
2022/02/22 07:48:17;;;;;;;28.15;17.17;;;;;;;9.14;100.00;99449.06;5033164;28;20026;-81
2022/02/22 07:50:42;;;;;;;33.30;18.88;;;;;;;9.23;100.00;99446.72;5032631;28;20034;-78
2022/02/22 07:53:08;;;;;;;31.92;20.17;;;;;;;9.36;100.00;99455.66;5027280;28;20046;-79
2022/02/22 07:55:33;;;;;;;27.88;18.33;;;;;;;9.36;100.00;99447.94;5019016;28;20039;-78
2022/02/22 07:57:59;;;;;;;29.85;19.35;;;;;;;9.57;100.00;99451.84;5023631;28;20029;-78
2022/02/22 08:00:25;;;;;;;32.80;19.85;;;;;;;9.69;100.00;99452.16;5021564;28;20080;-79
2022/02/22 08:02:54;;;;;;;25.58;17.48;;;;;;;9.85;100.00;99443.94;5011306;28;20031;-78
2022/02/22 08:05:20;;;;;;;28.65;15.57;;;;;;;10.06;100.00;99439.28;4962130;28;20042;-78
2022/02/22 08:07:45;;;;;;;20.67;15.15;;;;;;;10.11;100.00;99446.25;5012504;28;20040;-79
2022/02/22 08:10:11;;;;;;;27.45;18.00;;;;;;;10.25;100.00;99440.53;5013981;28;20091;-78
2022/02/22 08:12:36;;;;;;;24.58;17.33;;;;;;;10.24;100.00;99449.09;5002321;28;20030;-77
2022/02/22 08:15:06;;;;;;;28.73;17.05;;;;;;;10.18;100.00;99413.72;5002075;28;20034;-78
2022/02/22 08:17:31;;;;;;;21.30;15.20;;;;;;;10.26;100.00;99411.34;5001721;28;20034;-78
2022/02/22 08:19:57;;;;;;;23.65;15.73;;;;;;;10.58;100.00;99437.81;5003094;28;20032;-78
2022/02/22 08:22:22;;;;;;;34.28;16.20;;;;;;;10.62;100.00;99431.03;5003617;28;20027;-78
2022/02/22 08:24:48;;;;;;;23.70;17.17;;;;;;;10.75;100.00;99442.44;5012152;28;20029;-77
2022/02/22 08:27:14;;;;;;;26.50;16.98;;;;;;;10.82;100.00;99450.34;5021181;28;20026;-77
2022/02/22 08:29:40;;;;;;;27.13;16.23;;;;;;;10.84;100.00;99435.75;4987231;28;20141;-78
2022/02/22 08:32:05;;;;;;;25.90;16.23;;;;;;;10.81;99.62;99398.69;5023082;28;20112;-79
2022/02/22 08:34:31;;;;;;;24.55;16.30;;;;;;;11.15;99.04;99430.28;5015184;28;20439;-79
2022/02/22 08:36:56;;;;;;;29.60;17.30;;;;;;;11.10;97.66;99388.88;5012576;28;20081;-77
2022/02/22 08:39:24;;;;;;;28.23;15.18;;;;;;;11.41;98.25;99441.06;5012157;28;20116;-77
2022/02/22 08:41:50;;;;;;;22.35;14.80;;;;;;;11.58;97.26;99443.94;5012314;28;20029;-79
2022/02/22 08:44:16;;;;;;;21.40;12.45;;;;;;;11.75;96.61;99430.38;5012380;28;20038;-79
2022/02/22 08:46:42;;;;;;;25.52;13.90;;;;;;;11.72;96.57;99418.28;5012456;28;20034;-77
2022/02/22 08:49:07;;;;;;;34.58;15.57;;;;;;;11.79;96.49;99414.97;5012531;28;20111;-78
2022/02/22 08:51:33;;;;;;;32.00;14.52;;;;;;;12.04;96.10;99423.09;5019710;28;20095;-77
2022/02/22 08:53:58;;;;;;;25.02;13.95;;;;;;;12.21;96.08;99427.63;5023278;28;20119;-79
2022/02/22 08:56:23;;;;;;;20.63;11.05;;;;;;;12.29;95.58;99413.09;5019867;28;20499;-75
2022/02/22 08:58:49;;;;;;;24.45;14.20;;;;;;;12.29;94.57;99388.06;5019457;28;20040;-73
2022/02/22 09:01:14;;;;;;;25.27;12.30;;;;;;;12.57;94.29;99409.13;5031718;28;20029;-80
2022/02/22 09:03:40;;;;;;;20.15;10.23;;;;;;;12.77;96.11;99417.13;5031699;28;20392;-78
2022/02/22 09:06:05;;;;;;;16.98;10.57;;;;;;;12.87;94.63;99417.19;5019726;28;20065;-75
2022/02/22 09:08:31;;;;;;;21.10;10.20;;;;;;;13.00;93.95;99415.63;5016510;28;20083;-75
2022/02/22 09:10:57;;;;;;;18.58;9.38;;;;;;;13.07;92.20;99407.94;5009775;28;20026;-77
2022/02/22 09:13:23;;;;;;;20.33;9.88;;;;;;;13.05;92.83;99401.84;5011046;28;20109;-77
2022/02/22 09:15:50;;;;;;;15.60;10.18;;;;;;;13.15;92.74;99412.31;4993572;28;20197;-75
2022/02/22 09:18:18;;;;;;;18.90;10.43;;;;;;;13.15;92.45;99396.78;5011399;28;20029;-77
2022/02/22 09:20:44;;;;;;;13.35;9.50;;;;;;;13.02;92.71;99364.66;5011002;28;20030;-77
2022/02/22 09:23:10;;;;;;;14.27;7.95;;;;;;;13.43;91.05;99403.97;5011943;28;20392;-78
2022/02/22 09:25:36;;;;;;;14.73;7.90;;;;;;;13.38;90.26;99390.09;5011526;28;20037;-77
2022/02/22 09:28:05;;;;;;;13.90;8.07;;;;;;;13.56;89.97;99398.88;5011848;28;20032;-76
2022/02/22 09:30:31;;;;;;;13.88;8.00;;;;;;;13.58;90.66;99400.63;5011162;28;20057;-77
2022/02/22 09:32:57;;;;;;;14.18;7.43;;;;;;;13.20;90.71;99333.75;5011224;28;20041;-78
2022/02/22 09:35:24;;;;;;;10.90;6.95;;;;;;;13.62;90.28;99396.31;5011457;28;20030;-78
2022/02/22 09:37:51;;;;;;;12.27;7.95;;;;;;;13.52;91.56;99391.91;5011641;28;20037;-77
2022/02/22 09:40:17;;;;;;;12.18;7.53;;;;;;;13.19;90.98;99362.25;4976452;28;20111;-78
2022/02/22 09:42:43;;;;;;;12.70;7.60;;;;;;;13.17;92.08;99395.03;5011533;28;20477;-76
2022/02/22 09:45:09;;;;;;;12.18;6.72;;;;;;;13.09;93.89;99393.25;5011279;28;20026;-76
2022/02/22 09:47:36;;;;;;;11.32;6.25;;;;;;;12.89;92.13;99364.56;5011439;28;20030;-76
2022/02/22 09:50:06;;;;;;;13.20;6.72;;;;;;;13.05;92.46;99375.94;5011171;28;20110;-77
2022/02/22 09:52:33;;;;;;;12.00;6.88;;;;;;;13.23;91.71;99385.63;5004076;28;20428;-79
2022/02/22 09:54:59;;;;;;;16.42;8.43;;;;;;;13.27;92.15;99374.41;5010245;28;20030;-76
2022/02/22 09:57:25;;;;;;;12.50;7.00;;;;;;;13.22;90.86;99354.47;5011315;28;20033;-81
2022/02/22 09:59:50;;;;;;;13.13;7.00;;;;;;;13.44;89.74;99368.50;4993311;28;20025;-77
2022/02/22 10:02:17;;;;;;;15.75;7.70;;;;;;;13.40;90.09;99351.22;5011124;28;20026;-79
2022/02/22 10:04:44;;;;;;;16.25;8.65;;;;;;;13.57;90.04;99366.88;5011266;28;20029;-74
2022/02/22 10:07:10;;;;;;;13.13;7.70;;;;;;;13.67;89.67;99357.44;5011136;28;20030;-79
2022/02/22 10:09:59;;;;;;;16.60;9.52;;;;;;;14.04;88.04;99355.94;4993146;28;20037;-78
2022/02/22 10:12:38;;;;;;;12.70;7.53;;;;;;;14.16;86.39;99359.44;5011187;28;20040;-75
2022/02/22 10:15:06;;;;;;;13.43;7.37;;;;;;;13.89;86.11;99329.88;5011109;28;20026;-78
2022/02/22 10:17:40;;;;;;;15.48;7.97;;;;;;;14.22;86.11;99367.25;5010877;28;20033;-78
2022/02/22 10:20:08;;;;;;;14.75;7.97;;;;;;;14.11;85.31;99330.88;5010967;28;20108;-77
2022/02/22 10:22:45;;;;;;;12.95;8.00;;;;;;;14.28;85.11;99343.91;5010818;28;20080;-80
2022/02/22 10:25:11;;;;;;;15.88;8.05;;;;;;;14.30;85.77;99343.91;5011141;28;20112;-79
2022/02/22 10:27:48;;;;;;;14.85;8.13;;;;;;;14.10;85.45;99307.50;4993376;28;20619;-78
2022/02/22 10:30:38;;;;;;;13.00;7.75;;;;;;;14.47;84.86;99362.16;5010516;28;20026;-80
2022/02/22 10:33:09;;;;;;;14.77;8.98;;;;;;;14.47;86.17;99357.81;5010747;28;20496;-79
2022/02/22 10:35:34;;;;;;;12.57;8.02;;;;;;;14.71;85.07;99364.81;5010754;28;20176;-75
2022/02/22 10:38:15;;;;;;;15.05;8.48;;;;;;;14.94;84.45;99356.22;5010116;28;20459;-78
2022/02/22 10:40:42;;;;;;;15.60;7.32;;;;;;;15.17;83.40;99358.81;5009414;28;20113;-81
2022/02/22 10:43:19;;;;;;;17.75;8.27;;;;;;;15.28;81.53;99345.84;5009539;28;20033;-79
2022/02/22 10:45:53;;;;;;;12.70;7.55;;;;;;;15.43;81.72;99354.50;5009371;28;20033;-79
2022/02/22 10:48:28;;;;;;;11.85;6.45;;;;;;;15.31;80.02;99324.16;5009890;28;20030;-77
2022/02/22 10:50:55;;;;;;;14.43;7.03;;;;;;;15.46;79.63;99355.34;5010465;28;20183;-76
2022/02/22 10:53:28;;;;;;;17.08;7.35;;;;;;;15.49;80.30;99334.56;5021671;28;20054;-79
2022/02/22 10:55:56;;;;;;;20.25;8.18;;;;;;;15.46;79.75;99320.69;5030093;28;20113;-83
2022/02/22 10:58:24;;;;;;;18.77;7.88;;;;;;;15.65;80.65;99350.13;5030352;28;20033;-79
2022/02/22 11:00:49;;;;;;;17.08;6.18;;;;;;;15.66;79.98;99344.06;5030705;28;20117;-79
2022/02/22 11:03:15;;;;;;;13.93;6.22;;;;;;;15.67;80.99;99349.25;5012456;28;20116;-78
2022/02/22 11:05:40;;;;;;;15.02;5.63;;;;;;;15.66;80.18;99346.66;5029960;28;20079;-78
2022/02/22 11:08:06;;;;;;;15.05;5.65;;;;;;;15.54;79.25;99326.75;5030441;28;20041;-79
2022/02/22 11:10:33;;;;;;;14.18;6.00;;;;;;;15.64;78.57;99333.66;4978375;28;20460;-80
2022/02/22 11:13:00;;;;;;;13.02;6.40;;;;;;;15.68;78.34;99340.56;5012545;28;20104;-76
2022/02/22 11:15:40;;;;;;;13.00;6.30;;;;;;;15.54;78.38;99311.13;5028489;28;20403;-79
2022/02/22 11:18:21;;;;;;;22.75;10.68;;;;;;;15.81;77.54;99346.63;4979951;28;20099;-77